createdAt,value
2019-05-20T00:01:01.240Z,14.30
2019-05-20T00:03:06.741Z,14.20
2019-05-20T00:05:11.928Z,14.20
2019-05-20T00:07:16.456Z,14.10
2019-05-20T00:09:21.287Z,14.10
2019-05-20T00:11:25.900Z,14.10
2019-05-20T00:13:30.761Z,14.10
2019-05-20T00:15:35.265Z,14.10
2019-05-20T00:17:39.667Z,14.00
2019-05-20T00:19:44.167Z,14.10
2019-05-20T00:21:48.651Z,14.10
2019-05-20T00:23:53.051Z,14.00
2019-05-20T00:25:57.419Z,14.00
2019-05-20T00:28:01.804Z,13.90
2019-05-20T00:30:08.453Z,13.90
2019-05-20T00:32:12.854Z,13.90
2019-05-20T00:34:17.525Z,13.90
2019-05-20T00:36:21.984Z,13.90
2019-05-20T00:38:26.814Z,13.90
2019-05-20T00:40:31.237Z,13.80
2019-05-20T00:42:36.028Z,13.90
2019-05-20T00:44:40.841Z,13.80
2019-05-20T00:46:47.662Z,13.80
2019-05-20T00:48:52.548Z,13.80
2019-05-20T00:50:57.433Z,13.80
2019-05-20T00:53:02.277Z,13.70
2019-05-20T00:55:08.158Z,13.70
2019-05-20T00:57:13.188Z,13.70
2019-05-20T00:59:17.582Z,13.70
2019-05-20T01:01:22.091Z,13.80
2019-05-20T01:03:27.502Z,13.70
2019-05-20T01:05:31.990Z,13.70
2019-05-20T01:07:36.450Z,13.70
2019-05-20T01:09:40.866Z,13.70
2019-05-20T01:11:46.028Z,13.70
2019-05-20T01:13:51.543Z,13.70
2019-05-20T01:15:55.962Z,13.70
2019-05-20T01:18:00.307Z,13.70
2019-05-20T01:20:05.222Z,13.70
2019-05-20T01:22:09.932Z,13.70
2019-05-20T01:24:14.322Z,13.70
2019-05-20T01:26:18.790Z,13.80
2019-05-20T01:28:23.228Z,13.70
2019-05-20T01:30:27.630Z,13.60
2019-05-20T01:32:34.010Z,13.60
2019-05-20T01:34:38.486Z,13.60
2019-05-20T01:36:43.095Z,13.50
2019-05-20T01:38:47.518Z,13.50
2019-05-20T01:40:51.969Z,13.50
2019-05-20T01:42:56.404Z,13.50
2019-05-20T01:45:00.945Z,13.50
2019-05-20T01:47:05.456Z,13.50
2019-05-20T01:49:09.811Z,13.60
2019-05-20T01:51:14.281Z,13.60
2019-05-20T01:53:19.000Z,13.60
2019-05-20T01:55:24.106Z,13.60
2019-05-20T01:57:28.628Z,13.50
2019-05-20T01:59:33.430Z,13.50
2019-05-20T02:01:37.871Z,13.40
2019-05-20T02:03:42.315Z,13.50
2019-05-20T02:05:46.668Z,13.50
2019-05-20T02:07:51.141Z,13.50
2019-05-20T02:09:56.218Z,13.50
2019-05-20T02:12:00.651Z,13.50
2019-05-20T02:14:08.596Z,13.50
2019-05-20T02:16:13.052Z,13.60
2019-05-20T02:18:17.594Z,13.50
2019-05-20T02:20:22.817Z,13.60
2019-05-20T02:22:27.448Z,13.60
2019-05-20T02:24:32.092Z,13.60
2019-05-20T02:26:36.481Z,13.60
2019-05-20T02:28:40.919Z,13.70
2019-05-20T02:30:45.425Z,13.70
2019-05-20T02:32:49.832Z,13.70
2019-05-20T02:34:57.542Z,13.70
2019-05-20T02:37:01.959Z,13.60
2019-05-20T02:39:07.611Z,13.60
2019-05-20T02:41:12.446Z,13.70
2019-05-20T02:43:17.078Z,13.70
2019-05-20T02:45:21.711Z,13.80
2019-05-20T02:47:26.216Z,13.80
2019-05-20T02:49:30.623Z,13.90
2019-05-20T02:51:35.017Z,13.90
2019-05-20T02:53:39.408Z,13.80
2019-05-20T02:55:45.386Z,13.80
2019-05-20T02:57:49.726Z,13.80
2019-05-20T02:59:54.492Z,13.80
2019-05-20T03:01:59.060Z,13.90
2019-05-20T03:04:11.391Z,13.80
2019-05-20T03:06:09.614Z,13.90
2019-05-20T03:08:13.944Z,13.90
2019-05-20T03:10:18.692Z,13.90
2019-05-20T03:12:23.216Z,13.80
2019-05-20T03:14:28.201Z,13.90
2019-05-20T03:16:32.711Z,13.90
2019-05-20T03:18:37.535Z,13.90
2019-05-20T03:20:41.871Z,14.00
2019-05-20T03:22:46.273Z,14.10
2019-05-20T03:24:51.622Z,14.10
2019-05-20T03:26:56.067Z,14.10
2019-05-20T03:29:01.179Z,14.10
2019-05-20T03:31:05.611Z,14.00
2019-05-20T03:33:09.998Z,14.00
2019-05-20T03:35:14.569Z,13.90
2019-05-20T03:37:20.309Z,13.90
2019-05-20T03:39:24.721Z,14.00
2019-05-20T03:41:29.091Z,14.10
2019-05-20T03:43:33.853Z,14.20
2019-05-20T03:45:38.664Z,14.10
2019-05-20T03:47:43.052Z,14.10
2019-05-20T03:49:47.714Z,14.00
2019-05-20T03:51:52.706Z,14.00
2019-05-20T03:53:57.515Z,14.00
2019-05-20T03:56:02.033Z,14.00
2019-05-20T03:58:06.460Z,14.00
2019-05-20T04:00:12.017Z,14.00
2019-05-20T04:02:16.488Z,14.00
2019-05-20T04:04:25.065Z,14.00
2019-05-20T04:06:30.348Z,14.10
2019-05-20T04:08:34.862Z,14.10
2019-05-20T04:10:39.366Z,14.00
2019-05-20T04:12:43.768Z,14.00
2019-05-20T04:14:48.389Z,14.00
2019-05-20T04:16:55.321Z,14.10
2019-05-20T04:18:59.893Z,14.10
2019-05-20T04:21:04.601Z,14.00
2019-05-20T04:23:09.128Z,13.90
2019-05-20T04:25:13.668Z,14.00
2019-05-20T04:27:18.387Z,14.00
2019-05-20T04:29:23.742Z,14.00
2019-05-20T04:31:29.930Z,14.00
2019-05-20T04:33:36.566Z,14.10
2019-05-20T04:35:41.062Z,14.10
2019-05-20T04:37:45.590Z,14.00
2019-05-20T04:39:50.418Z,14.10
2019-05-20T04:42:16.901Z,14.10
2019-05-20T04:44:22.093Z,14.10
2019-05-20T04:46:28.725Z,14.00
2019-05-20T04:48:34.418Z,14.00
2019-05-20T04:50:39.390Z,13.90
2019-05-20T04:52:46.135Z,13.90
2019-05-20T04:54:50.550Z,13.90
2019-05-20T04:56:58.592Z,14.10
2019-05-20T04:59:03.108Z,14.00
2019-05-20T05:01:07.582Z,14.00
2019-05-20T05:03:12.335Z,14.00
2019-05-20T05:05:17.899Z,14.10
2019-05-20T05:07:22.473Z,14.20
2019-05-20T05:09:26.990Z,14.20
2019-05-20T05:11:31.431Z,14.20
2019-05-20T05:13:35.892Z,14.20
2019-05-20T05:15:40.649Z,14.20
2019-05-20T05:17:45.111Z,14.10
2019-05-20T05:19:49.599Z,14.10
2019-05-20T05:21:54.014Z,14.10
2019-05-20T05:23:59.599Z,14.10
2019-05-20T05:26:04.300Z,14.20
2019-05-20T05:28:08.779Z,14.10
2019-05-20T05:30:13.501Z,14.20
2019-05-20T05:32:19.635Z,14.20
2019-05-20T05:34:24.073Z,14.20
2019-05-20T05:36:28.534Z,14.20
2019-05-20T05:38:32.937Z,14.20
2019-05-20T05:40:38.333Z,14.20
2019-05-20T05:42:45.399Z,14.10
2019-05-20T05:44:49.835Z,14.10
2019-05-20T05:46:54.198Z,14.10
2019-05-20T05:49:00.092Z,14.00
2019-05-20T05:51:05.005Z,14.00
2019-05-20T05:53:09.422Z,14.00
2019-05-20T05:55:13.988Z,13.90
2019-05-20T05:57:18.474Z,13.90
2019-05-20T05:59:23.146Z,14.00
2019-05-20T06:01:29.783Z,14.00
2019-05-20T06:03:34.514Z,14.10
2019-05-20T06:05:39.019Z,14.10
2019-05-20T06:07:43.814Z,14.10
2019-05-20T06:09:48.279Z,14.10
2019-05-20T06:11:52.724Z,14.10
2019-05-20T06:13:57.594Z,14.20
2019-05-20T06:16:01.928Z,14.30
2019-05-20T06:18:06.334Z,14.20
2019-05-20T06:20:11.909Z,14.10
2019-05-20T06:22:16.388Z,14.10
2019-05-20T06:24:20.860Z,14.10
2019-05-20T06:26:26.467Z,14.20
2019-05-20T06:28:31.377Z,14.20
2019-05-20T06:30:44.164Z,14.20
2019-05-20T06:32:49.252Z,14.20
2019-05-20T06:34:53.848Z,14.20
2019-05-20T06:37:00.739Z,14.20
2019-05-20T06:39:12.772Z,14.20
2019-05-20T06:41:17.173Z,14.10
2019-05-20T06:43:22.525Z,14.20
2019-05-20T06:45:26.955Z,14.30
2019-05-20T06:47:31.420Z,14.20
2019-05-20T06:49:36.199Z,14.20
2019-05-20T06:51:40.644Z,14.20
2019-05-20T06:53:45.020Z,14.20
2019-05-20T06:55:49.454Z,14.30
2019-05-20T06:57:53.867Z,14.20
2019-05-20T06:59:58.259Z,14.20
2019-05-20T07:02:03.418Z,14.30
2019-05-20T07:04:08.308Z,14.30
2019-05-20T07:06:15.089Z,14.30
2019-05-20T07:08:19.615Z,14.30
2019-05-20T07:10:24.119Z,14.30
2019-05-20T07:12:40.496Z,14.30
2019-05-20T07:14:34.565Z,14.30
2019-05-20T07:16:39.598Z,14.40
2019-05-20T07:18:44.066Z,14.40
2019-05-20T07:20:48.427Z,14.30
2019-05-20T07:22:56.204Z,14.50
2019-05-20T07:24:59.139Z,14.50
2019-05-20T07:27:03.904Z,14.50
2019-05-20T07:29:08.374Z,14.60
2019-05-20T07:31:13.118Z,14.50
2019-05-20T07:33:17.905Z,14.50
2019-05-20T07:35:30.268Z,14.60
2019-05-20T07:37:29.035Z,14.60
2019-05-20T07:39:34.309Z,14.70
2019-05-20T07:41:41.436Z,14.70
2019-05-20T07:43:44.900Z,14.70
2019-05-20T07:45:50.749Z,14.80
2019-05-20T07:47:56.047Z,14.80
2019-05-20T07:50:00.724Z,14.70
2019-05-20T07:52:06.051Z,14.70
2019-05-20T07:54:11.806Z,14.70
2019-05-20T07:56:20.075Z,14.80
2019-05-20T07:58:27.103Z,14.70
2019-05-20T08:00:32.946Z,14.60
2019-05-20T08:02:38.284Z,14.60
2019-05-20T08:04:44.173Z,14.60
2019-05-20T08:06:49.043Z,14.60
2019-05-20T08:08:53.480Z,14.60
2019-05-20T08:10:58.071Z,14.60
2019-05-20T08:13:02.530Z,14.70
2019-05-20T08:15:07.779Z,14.80
2019-05-20T08:17:12.678Z,14.80
2019-05-20T08:19:17.571Z,14.70
2019-05-20T08:21:22.164Z,14.70
2019-05-20T08:23:26.604Z,14.70
2019-05-20T08:25:31.102Z,14.80
2019-05-20T08:27:35.896Z,14.90
2019-05-20T08:29:40.376Z,14.90
2019-05-20T08:31:44.903Z,14.90
2019-05-20T08:33:49.410Z,15.00
2019-05-20T08:35:53.851Z,15.00
2019-05-20T08:37:58.389Z,14.90
2019-05-20T08:40:02.844Z,14.70
2019-05-20T08:42:09.327Z,14.80
2019-05-20T08:44:14.149Z,15.00
2019-05-20T08:46:20.887Z,15.20
2019-05-20T08:48:25.354Z,15.00
2019-05-20T08:50:29.959Z,14.90
2019-05-20T08:52:34.476Z,14.90
2019-05-20T08:54:40.476Z,15.00
2019-05-20T08:56:49.158Z,15.00
2019-05-20T08:58:51.764Z,15.00
2019-05-20T09:00:56.282Z,14.90
2019-05-20T09:03:03.834Z,14.90
2019-05-20T09:07:26.547Z,15.00
2019-05-20T09:09:31.210Z,14.80
2019-05-20T09:11:36.080Z,14.90
2019-05-20T09:13:41.373Z,14.90
2019-05-20T09:15:49.418Z,14.90
2019-05-20T09:17:53.921Z,14.90
2019-05-20T09:19:58.844Z,15.10
2019-05-20T09:22:03.325Z,15.00
2019-05-20T09:24:07.976Z,15.00
2019-05-20T09:26:12.439Z,15.10
2019-05-20T09:28:17.385Z,15.10
2019-05-20T09:30:22.687Z,15.20
2019-05-20T09:32:27.557Z,15.10
2019-05-20T09:34:32.475Z,15.20
2019-05-20T09:36:36.982Z,15.20
2019-05-20T09:38:42.032Z,15.00
2019-05-20T09:40:48.705Z,15.00
2019-05-20T09:42:55.018Z,14.90
2019-05-20T09:45:02.912Z,15.10
2019-05-20T09:47:06.666Z,15.10
2019-05-20T09:49:11.059Z,15.10
2019-05-20T09:51:16.436Z,14.90
2019-05-20T09:53:23.162Z,15.10
2019-05-20T09:55:27.821Z,15.00
2019-05-20T09:57:32.555Z,14.90
2019-05-20T09:59:43.499Z,15.00
2019-05-20T10:01:44.052Z,15.00
2019-05-20T10:03:48.614Z,15.00
2019-05-20T10:05:53.297Z,15.00
2019-05-20T10:07:58.417Z,15.00
2019-05-20T10:10:03.227Z,15.20
2019-05-20T10:12:07.770Z,15.20
2019-05-20T10:14:12.559Z,15.10
2019-05-20T10:16:17.225Z,15.20
2019-05-20T10:18:36.130Z,15.40
2019-05-20T10:20:27.895Z,15.40
2019-05-20T10:22:32.461Z,15.40
2019-05-20T10:24:37.931Z,15.40
2019-05-20T10:26:42.467Z,15.30
2019-05-20T10:28:47.778Z,15.40
2019-05-20T10:30:52.435Z,15.50
2019-05-20T10:32:56.996Z,15.30
2019-05-20T10:35:01.585Z,15.20
2019-05-20T10:37:06.199Z,15.50
2019-05-20T10:39:10.988Z,15.50
2019-05-20T10:41:15.439Z,15.40
2019-05-20T10:43:19.999Z,15.20
2019-05-20T10:45:24.471Z,15.20
2019-05-20T10:47:29.017Z,15.20
2019-05-20T10:49:34.851Z,15.40
2019-05-20T10:51:39.384Z,15.30
2019-05-20T10:53:43.803Z,15.20
2019-05-20T10:55:48.459Z,15.20
2019-05-20T10:57:53.866Z,15.30
2019-05-20T10:59:59.119Z,15.40
2019-05-20T11:02:03.601Z,15.40
2019-05-20T11:04:08.163Z,15.30
2019-05-20T11:06:13.019Z,15.40
2019-05-20T11:08:17.529Z,15.40
2019-05-20T11:10:22.073Z,15.30
2019-05-20T11:12:26.848Z,15.30
2019-05-20T11:14:31.380Z,15.30
2019-05-20T11:16:36.050Z,15.20
2019-05-20T11:18:40.639Z,15.50
2019-05-20T11:20:45.198Z,15.50
2019-05-20T11:22:49.697Z,15.50
2019-05-20T11:24:54.289Z,15.30
2019-05-20T11:26:58.689Z,15.30
2019-05-20T11:29:03.276Z,15.20
2019-05-20T11:31:08.184Z,15.40
2019-05-20T11:33:13.373Z,15.50
2019-05-20T11:35:18.029Z,15.60
2019-05-20T11:37:23.722Z,15.50
2019-05-20T11:39:33.111Z,15.40
2019-05-20T11:43:41.149Z,15.50
2019-05-20T11:45:46.064Z,15.50
2019-05-20T11:47:50.944Z,15.40
2019-05-20T11:49:56.029Z,15.30
2019-05-20T11:52:02.189Z,15.30
2019-05-20T11:54:06.731Z,15.40
2019-05-20T11:56:12.061Z,15.20
2019-05-20T11:58:16.928Z,15.20
2019-05-20T12:00:21.512Z,15.40
2019-05-20T12:02:25.989Z,15.50
2019-05-20T12:04:30.447Z,15.60
2019-05-20T12:06:34.903Z,15.60
2019-05-20T12:08:39.346Z,15.60
2019-05-20T12:10:43.867Z,15.50
2019-05-20T12:12:48.383Z,15.60
2019-05-20T12:14:52.934Z,15.60
2019-05-20T12:16:57.469Z,15.60
2019-05-20T12:19:02.358Z,15.60
2019-05-20T12:21:06.934Z,15.60
2019-05-20T12:23:11.578Z,15.80
2019-05-20T12:25:16.787Z,15.70
2019-05-20T12:27:21.230Z,15.70
2019-05-20T12:29:25.803Z,15.80
2019-05-20T12:31:30.227Z,15.70
2019-05-20T12:33:34.588Z,15.60
2019-05-20T12:35:39.073Z,15.60
2019-05-20T12:37:45.670Z,15.50
2019-05-20T12:40:05.844Z,15.50
2019-05-20T12:41:56.132Z,15.50
2019-05-20T12:44:11.522Z,15.60
2019-05-20T12:46:08.051Z,15.70
2019-05-20T12:48:13.768Z,15.60
2019-05-20T12:50:18.956Z,15.60
2019-05-20T12:52:23.615Z,15.90
2019-05-20T12:54:29.459Z,16.00
2019-05-20T12:56:33.903Z,16.00
2019-05-20T12:58:38.761Z,15.90
2019-05-20T13:00:43.812Z,15.90
2019-05-20T13:02:48.212Z,16.00
2019-05-20T13:04:52.586Z,16.10
2019-05-20T13:06:57.108Z,16.20
2019-05-20T13:09:01.579Z,16.10
2019-05-20T13:11:06.272Z,16.10
2019-05-20T13:13:11.112Z,16.00
2019-05-20T13:15:15.685Z,16.00
2019-05-20T13:17:20.519Z,16.10
2019-05-20T13:19:25.051Z,16.00
2019-05-20T13:21:29.462Z,16.10
2019-05-20T13:23:33.852Z,16.00
2019-05-20T13:25:38.981Z,16.00
2019-05-20T13:27:43.431Z,16.10
2019-05-20T13:29:47.914Z,16.20
2019-05-20T13:31:52.469Z,16.10
2019-05-20T13:33:56.906Z,16.20
2019-05-20T13:36:01.291Z,16.30
2019-05-20T13:38:06.256Z,16.20
2019-05-20T13:40:11.021Z,16.40
2019-05-20T13:42:15.519Z,16.30
2019-05-20T13:44:20.071Z,16.30
2019-05-20T13:46:25.040Z,16.20
2019-05-20T13:48:29.792Z,16.30
2019-05-20T13:50:34.311Z,16.20
2019-05-20T13:52:38.666Z,16.10
2019-05-20T13:54:43.151Z,16.20
2019-05-20T13:56:48.572Z,16.20
2019-05-20T13:58:53.049Z,16.10
2019-05-20T14:00:57.913Z,16.20
2019-05-20T14:03:02.500Z,16.40
2019-05-20T14:05:06.908Z,16.50
2019-05-20T14:07:11.420Z,16.50
2019-05-20T14:09:15.930Z,16.50
2019-05-20T14:11:33.812Z,16.30
2019-05-20T14:13:26.916Z,16.40
2019-05-20T14:15:31.423Z,16.40
2019-05-20T14:17:37.413Z,16.50
2019-05-20T14:19:41.946Z,16.30
2019-05-20T14:21:46.692Z,16.20
2019-05-20T14:23:51.204Z,16.40
2019-05-20T14:25:55.703Z,16.40
2019-05-20T14:28:00.276Z,16.40
2019-05-20T14:30:05.446Z,16.50
2019-05-20T14:32:09.917Z,16.40
2019-05-20T14:34:14.777Z,16.30
2019-05-20T14:36:38.615Z,16.30
2019-05-20T14:38:26.553Z,16.30
2019-05-20T14:40:31.076Z,16.40
2019-05-20T14:42:35.553Z,16.30
2019-05-20T14:44:40.789Z,16.50
2019-05-20T14:46:46.201Z,16.40
2019-05-20T14:48:50.648Z,16.40
2019-05-20T14:50:55.450Z,16.50
2019-05-20T14:53:00.092Z,16.50
2019-05-20T14:55:05.230Z,16.50
2019-05-20T14:57:09.730Z,16.60
2019-05-20T14:59:15.593Z,16.50
2019-05-20T15:01:20.063Z,16.50
2019-05-20T15:03:24.854Z,16.50
2019-05-20T15:05:29.599Z,16.50
2019-05-20T15:07:41.062Z,16.50
2019-05-20T15:09:46.254Z,16.50
2019-05-20T15:11:57.489Z,16.40
2019-05-20T15:14:01.931Z,16.30
2019-05-20T15:16:06.529Z,16.40
2019-05-20T15:18:11.091Z,16.30
2019-05-20T15:20:15.940Z,16.40
2019-05-20T15:22:20.430Z,16.50
2019-05-20T15:24:25.210Z,16.30
2019-05-20T15:26:29.676Z,16.30
2019-05-20T15:28:34.074Z,16.30
2019-05-20T15:30:38.604Z,16.20
2019-05-20T15:32:43.319Z,16.20
2019-05-20T15:34:49.836Z,16.20
2019-05-20T15:36:54.239Z,16.20
2019-05-20T15:38:58.635Z,16.30
2019-05-20T15:41:05.902Z,16.20
2019-05-20T15:43:10.518Z,16.20
2019-05-20T15:45:14.975Z,16.10
2019-05-20T15:47:19.461Z,16.20
2019-05-20T15:49:23.974Z,16.10
2019-05-20T15:51:28.455Z,16.10
2019-05-20T15:53:32.912Z,16.00
2019-05-20T15:55:38.023Z,16.00
2019-05-20T15:57:42.452Z,16.10
2019-05-20T15:59:46.952Z,16.10
2019-05-20T16:01:52.835Z,16.30
2019-05-20T16:03:57.724Z,16.20
2019-05-20T16:06:03.622Z,16.00
2019-05-20T16:08:08.620Z,16.00
2019-05-20T16:10:13.483Z,16.00
2019-05-20T16:12:18.020Z,16.10
2019-05-20T16:14:22.769Z,16.20
2019-05-20T16:16:27.620Z,16.10
2019-05-20T16:18:32.449Z,16.10
2019-05-20T16:20:36.976Z,16.10
2019-05-20T16:22:41.951Z,16.20
2019-05-20T16:24:46.417Z,16.20
2019-05-20T16:26:50.827Z,16.20
2019-05-20T16:28:55.203Z,16.20
2019-05-20T16:30:59.591Z,16.10
2019-05-20T16:33:04.217Z,16.20
2019-05-20T16:35:09.553Z,16.20
2019-05-20T16:37:14.142Z,16.30
2019-05-20T16:39:18.982Z,16.30
2019-05-20T16:41:23.793Z,16.20
2019-05-20T16:43:28.607Z,16.30
2019-05-20T16:45:33.254Z,16.30
2019-05-20T16:47:37.719Z,16.40
2019-05-20T16:49:42.428Z,16.50
2019-05-20T16:51:46.949Z,16.40
2019-05-20T16:53:52.622Z,16.50
2019-05-20T16:55:57.414Z,16.60
2019-05-20T16:58:05.191Z,16.70
2019-05-20T17:00:29.830Z,16.70
2019-05-20T17:02:16.635Z,16.60
2019-05-20T17:04:22.498Z,16.60
2019-05-20T17:06:27.644Z,16.60
2019-05-20T17:08:32.165Z,16.50
2019-05-20T17:10:37.087Z,16.50
2019-05-20T17:12:41.798Z,16.40
2019-05-20T17:14:49.435Z,16.40
2019-05-20T17:16:54.308Z,16.40
2019-05-20T17:19:00.442Z,16.30
2019-05-20T17:21:05.825Z,16.30
2019-05-20T17:23:10.590Z,16.20
2019-05-20T17:25:16.374Z,16.10
2019-05-20T17:27:21.356Z,16.10
2019-05-20T17:29:28.962Z,16.00
2019-05-20T17:31:33.527Z,16.30
2019-05-20T17:33:38.106Z,16.20
2019-05-20T17:35:42.750Z,16.20
2019-05-20T17:37:47.384Z,16.20
2019-05-20T17:39:52.000Z,16.20
2019-05-20T17:41:57.178Z,16.10
2019-05-20T17:44:01.669Z,16.00
2019-05-20T17:46:06.690Z,15.90
2019-05-20T17:48:11.670Z,15.90
2019-05-20T17:50:16.847Z,15.90
2019-05-20T17:52:21.586Z,16.00
2019-05-20T17:54:26.523Z,16.00
2019-05-20T17:56:31.207Z,16.20
2019-05-20T17:58:37.406Z,16.10
2019-05-20T18:00:42.379Z,16.10
2019-05-20T18:02:46.911Z,16.10
2019-05-20T18:04:51.431Z,16.10
2019-05-20T18:06:58.451Z,16.10
2019-05-20T18:09:04.063Z,16.00
2019-05-20T18:11:08.681Z,16.00
2019-05-20T18:13:13.200Z,15.90
2019-05-20T18:15:19.833Z,15.90
2019-05-20T18:17:24.372Z,15.90
2019-05-20T18:19:30.075Z,15.90
2019-05-20T18:21:34.700Z,15.80
2019-05-20T18:23:39.517Z,15.90
2019-05-20T18:25:44.553Z,16.00
2019-05-20T18:27:49.195Z,15.90
2019-05-20T18:29:55.277Z,15.80
2019-05-20T18:31:59.975Z,15.80
2019-05-20T18:34:04.654Z,15.80
2019-05-20T18:36:09.217Z,15.70
2019-05-20T18:38:13.997Z,15.70
2019-05-20T18:40:18.790Z,15.90
2019-05-20T18:42:23.518Z,15.80
2019-05-20T18:44:28.052Z,15.70
2019-05-20T18:46:33.289Z,15.70
2019-05-20T18:48:38.161Z,15.70
2019-05-20T18:50:43.411Z,15.80
2019-05-20T18:52:48.226Z,15.80
2019-05-20T18:54:52.881Z,15.70
2019-05-20T18:56:58.011Z,15.70
2019-05-20T18:59:02.914Z,15.60
2019-05-20T19:01:07.918Z,15.50
2019-05-20T19:03:12.665Z,15.50
2019-05-20T19:05:17.512Z,15.50
2019-05-20T19:07:22.304Z,15.50
2019-05-20T19:09:27.935Z,15.40
2019-05-20T19:11:32.663Z,15.40
2019-05-20T19:13:37.248Z,15.50
2019-05-20T19:15:43.473Z,15.50
2019-05-20T19:17:48.909Z,15.50
2019-05-20T19:19:53.420Z,15.50
2019-05-20T19:21:59.385Z,15.50
2019-05-20T19:24:05.035Z,15.40
2019-05-20T19:26:23.997Z,15.50
2019-05-20T19:28:17.236Z,15.40
2019-05-20T19:30:22.238Z,15.40
2019-05-20T19:32:27.909Z,15.50
2019-05-20T19:34:34.629Z,15.40
2019-05-20T19:36:40.073Z,15.40
2019-05-20T19:38:46.330Z,15.40
2019-05-20T19:40:54.920Z,15.40
2019-05-20T19:43:00.111Z,15.30
2019-05-20T19:45:05.036Z,15.30
2019-05-20T19:47:10.875Z,15.20
2019-05-20T19:49:15.611Z,15.40
2019-05-20T19:51:20.746Z,15.40
2019-05-20T19:53:27.502Z,15.30
2019-05-20T19:55:34.968Z,15.30
2019-05-20T19:57:40.373Z,15.20
2019-05-20T19:59:45.643Z,15.20
2019-05-20T20:01:50.768Z,15.20
2019-05-20T20:03:55.745Z,15.20
2019-05-20T20:06:00.402Z,15.10
2019-05-20T20:08:05.100Z,15.10
2019-05-20T20:10:11.832Z,15.20
2019-05-20T20:12:16.801Z,15.20
2019-05-20T20:14:22.559Z,15.40
2019-05-20T20:16:28.095Z,15.30
2019-05-20T20:18:33.532Z,15.20
2019-05-20T20:20:38.290Z,15.20
2019-05-20T20:22:44.361Z,15.20
2019-05-20T20:24:50.653Z,15.20
2019-05-20T20:26:55.157Z,15.30
2019-05-20T20:29:05.775Z,15.30
2019-05-20T20:31:11.191Z,15.20
2019-05-20T20:33:15.948Z,15.20
2019-05-20T20:35:21.245Z,15.20
2019-05-20T20:37:25.799Z,15.20
2019-05-20T20:39:34.317Z,15.10
2019-05-20T20:41:37.579Z,15.10
2019-05-20T20:43:42.468Z,15.10
2019-05-20T20:45:46.966Z,15.20
2019-05-20T20:47:51.426Z,15.10
2019-05-20T20:49:55.965Z,15.00
2019-05-20T20:52:00.499Z,15.00
2019-05-20T20:54:07.824Z,15.00
2019-05-20T20:56:24.679Z,15.00
2019-05-20T20:58:18.948Z,15.00
2019-05-20T21:00:23.521Z,14.90
2019-05-20T21:02:27.910Z,14.90
2019-05-20T21:04:32.542Z,15.00
2019-05-20T21:06:39.969Z,14.80
2019-05-20T21:08:44.389Z,14.70
2019-05-20T21:10:48.943Z,14.70
2019-05-20T21:12:54.427Z,14.70
2019-05-20T21:14:58.856Z,14.80
2019-05-20T21:17:03.582Z,14.90
2019-05-20T21:19:08.941Z,14.90
2019-05-20T21:21:13.794Z,14.90
2019-05-20T21:23:18.513Z,14.90
2019-05-20T21:25:23.026Z,14.80
2019-05-20T21:27:27.606Z,14.80
2019-05-20T21:29:33.008Z,14.80
2019-05-20T21:31:37.438Z,14.70
2019-05-20T21:33:42.021Z,14.70
2019-05-20T21:35:46.449Z,14.70
2019-05-20T21:37:51.412Z,14.70
2019-05-20T21:39:55.885Z,14.60
2019-05-20T21:42:00.399Z,14.60
2019-05-20T21:44:04.851Z,14.60
2019-05-20T21:46:09.231Z,14.70
2019-05-20T21:48:13.658Z,14.70
2019-05-20T21:50:18.199Z,14.70
2019-05-20T21:52:23.395Z,14.70
2019-05-20T21:54:27.929Z,14.70
2019-05-20T21:56:32.453Z,14.50
2019-05-20T21:58:36.916Z,14.50
2019-05-20T22:00:47.688Z,14.40
2019-05-20T22:02:54.573Z,14.40
2019-05-20T22:04:58.990Z,14.40
2019-05-20T22:07:03.365Z,14.40
2019-05-20T22:09:07.971Z,14.40
2019-05-20T22:11:12.426Z,14.40
2019-05-20T22:13:16.958Z,14.40
2019-05-20T22:15:22.375Z,14.50
2019-05-20T22:17:26.782Z,14.40
2019-05-20T22:19:31.227Z,14.30
2019-05-20T22:21:51.111Z,14.20
2019-05-20T22:23:58.416Z,14.30
2019-05-20T22:26:03.044Z,14.50
2019-05-20T22:28:07.559Z,14.50
2019-05-20T22:30:12.352Z,14.50
2019-05-20T22:32:17.363Z,14.50
2019-05-20T22:34:22.189Z,14.40
2019-05-20T22:36:26.668Z,14.40
2019-05-20T22:38:31.068Z,14.40
2019-05-20T22:40:35.419Z,14.50
2019-05-20T22:42:39.810Z,14.50
2019-05-20T22:44:44.251Z,14.40
2019-05-20T22:46:48.671Z,14.40
2019-05-20T22:48:53.395Z,14.40
2019-05-20T22:50:58.166Z,14.30
2019-05-20T22:53:02.552Z,14.30
2019-05-20T22:55:07.139Z,14.20
2019-05-20T22:57:13.074Z,14.10
2019-05-20T22:59:17.827Z,14.00
2019-05-20T23:01:22.392Z,14.00
2019-05-20T23:03:27.207Z,13.90
2019-05-20T23:05:32.419Z,13.90
2019-05-20T23:07:36.953Z,13.80
2019-05-20T23:09:41.306Z,13.70
2019-05-20T23:11:45.720Z,13.70
2019-05-20T23:13:50.195Z,13.60
2019-05-20T23:15:55.950Z,13.60
2019-05-20T23:18:00.362Z,13.60
2019-05-20T23:20:05.004Z,13.60
2019-05-20T23:22:09.746Z,13.60
2019-05-20T23:24:14.284Z,13.50
2019-05-20T23:26:18.747Z,13.60
2019-05-20T23:28:23.103Z,13.60
2019-05-20T23:30:27.480Z,13.50
2019-05-20T23:32:32.103Z,13.40
2019-05-20T23:34:36.585Z,13.40
2019-05-20T23:36:40.993Z,13.40
2019-05-20T23:38:45.725Z,13.40
2019-05-20T23:40:50.075Z,13.50
2019-05-20T23:42:54.390Z,13.40
2019-05-20T23:44:58.910Z,13.40
2019-05-20T23:47:03.331Z,13.40
2019-05-20T23:49:07.763Z,13.30
2019-05-20T23:51:12.528Z,13.30
2019-05-20T23:53:19.979Z,13.30
2019-05-20T23:55:24.557Z,13.20
2019-05-20T23:57:29.171Z,13.30
2019-05-20T23:59:33.838Z,13.30
